Time;durP1;ratioP1;P1;durP2;ratioP2;P2;SDS_P1;SDS_P2;PMS_P1;PMS_P2;Temp;Humidity;BMP_temperature;BMP_pressure;BME280_temperature;BME280_humidity;BME280_pressure;Samples;Min_cycle;Max_cycle;Signal;HPM_P1;HPM_P2
2022/03/20 00:00:14;;;;;;;0.30;0.20;;;22.30;51.70;;;;;;5081708;28;20021;-38
2022/03/20 00:02:41;;;;;;;0.27;0.23;;;22.30;51.80;;;;;;5081154;28;20041;-38
2022/03/20 00:05:08;;;;;;;0.25;0.25;;;22.30;52.30;;;;;;5064884;28;20036;-39
2022/03/20 00:07:34;;;;;;;0.30;0.30;;;22.30;51.70;;;;;;5043804;28;20033;-38
2022/03/20 00:10:01;;;;;;;0.40;0.25;;;22.20;51.70;;;;;;5064513;28;20080;-38
2022/03/20 00:12:27;;;;;;;0.32;0.20;;;22.20;51.60;;;;;;5079864;28;20024;-39
2022/03/20 00:14:53;;;;;;;0.22;0.20;;;22.20;51.50;;;;;;5081592;28;20040;-38
2022/03/20 00:17:20;;;;;;;0.20;0.17;;;22.20;51.50;;;;;;5081334;28;20031;-39
2022/03/20 00:19:46;;;;;;;;;;;22.20;51.40;;;;;;5093652;28;20032;-38
2022/03/20 00:22:13;;;;;;;0.20;0.20;;;22.20;51.40;;;;;;5092433;28;19915;-38
2022/03/20 00:24:42;;;;;;;0.20;0.20;;;22.10;51.20;;;;;;5087384;28;20021;-38
2022/03/20 00:27:12;;;;;;;0.38;0.20;;;22.10;51.20;;;;;;5064780;28;20057;-38
2022/03/20 00:29:39;;;;;;;0.10;0.10;;;22.10;50.90;;;;;;5084039;28;20040;-39
2022/03/20 00:32:06;;;;;;;0.20;0.20;;;22.10;50.90;;;;;;5084720;28;20029;-38
2022/03/20 00:34:32;;;;;;;0.28;0.22;;;22.00;51.20;;;;;;5085116;28;20073;-38
2022/03/20 00:36:58;;;;;;;0.20;0.20;;;22.10;51.20;;;;;;5083947;28;20493;-39
2022/03/20 00:39:24;;;;;;;0.20;0.20;;;22.00;51.30;;;;;;5080514;28;20068;-39
2022/03/20 00:41:50;;;;;;;0.55;0.20;;;22.00;51.50;;;;;;5083646;28;20032;-39
2022/03/20 00:44:16;;;;;;;0.15;0.10;;;22.00;51.60;;;;;;5084440;28;20389;-42
2022/03/20 00:46:43;;;;;;;0.28;0.25;;;22.00;51.60;;;;;;5083877;28;20024;-39
2022/03/20 00:49:09;;;;;;;0.43;0.10;;;22.00;51.40;;;;;;5088498;28;20044;-39
2022/03/20 00:51:36;;;;;;;0.52;0.20;;;22.00;51.40;;;;;;5066193;28;20793;-39
2022/03/20 00:54:02;;;;;;;0.20;0.20;;;22.00;51.30;;;;;;5083738;28;20496;-39
2022/03/20 00:56:28;;;;;;;0.30;0.20;;;22.00;51.20;;;;;;5071797;28;20021;-40
2022/03/20 00:58:54;;;;;;;0.25;0.25;;;21.90;51.30;;;;;;5070180;28;20043;-39
2022/03/20 01:01:20;;;;;;;0.22;0.20;;;21.90;51.50;;;;;;5083885;28;20048;-39
2022/03/20 01:03:46;;;;;;;0.20;0.20;;;21.90;51.50;;;;;;5084175;28;20021;-39
2022/03/20 01:06:13;;;;;;;0.20;0.20;;;21.90;51.70;;;;;;5084066;28;20032;-39
2022/03/20 01:08:39;;;;;;;0.13;0.13;;;21.90;51.80;;;;;;5079463;28;20118;-39
2022/03/20 01:11:06;;;;;;;0.37;0.30;;;21.90;51.50;;;;;;5082892;28;20025;-39
2022/03/20 01:13:33;;;;;;;0.20;0.13;;;21.90;51.60;;;;;;5070795;28;20277;-39
2022/03/20 01:15:59;;;;;;;0.52;0.22;;;21.90;51.60;;;;;;5071105;28;20097;-39
2022/03/20 01:18:25;;;;;;;0.40;0.20;;;21.90;51.40;;;;;;5083089;28;20039;-39
2022/03/20 01:20:55;;;;;;;0.20;0.20;;;21.90;51.30;;;;;;5071943;28;20096;-39
2022/03/20 01:23:21;;;;;;;0.68;0.20;;;21.90;51.10;;;;;;5064912;28;20033;-39
2022/03/20 01:25:50;;;;;;;0.20;0.20;;;21.80;51.70;;;;;;5080047;28;20083;-39
2022/03/20 01:28:17;;;;;;;0.30;0.20;;;21.80;51.90;;;;;;5081425;28;20033;-39
2022/03/20 01:30:44;;;;;;;0.20;0.20;;;21.80;51.70;;;;;;5077625;28;20094;-39
2022/03/20 01:33:10;;;;;;;0.20;0.20;;;21.80;51.90;;;;;;5082629;28;20076;-39
2022/03/20 01:35:36;;;;;;;0.20;0.20;;;21.80;51.50;;;;;;5084244;28;20104;-39
2022/03/20 01:38:04;;;;;;;0.30;0.10;;;21.80;51.40;;;;;;5080286;28;20028;-39
2022/03/20 01:40:31;;;;;;;0.20;0.20;;;21.80;51.40;;;;;;5081658;28;20032;-39
2022/03/20 01:42:57;;;;;;;0.20;0.20;;;21.80;51.30;;;;;;5082971;28;20032;-39
2022/03/20 01:45:23;;;;;;;0.20;0.10;;;21.70;51.30;;;;;;5083163;28;20035;-39
2022/03/20 01:47:50;;;;;;;0.20;0.20;;;21.70;51.80;;;;;;5066204;28;20033;-39
2022/03/20 01:50:17;;;;;;;0.30;0.20;;;21.80;52.00;;;;;;5081675;28;20114;-39
2022/03/20 01:52:45;;;;;;;0.20;0.20;;;21.80;52.00;;;;;;5081669;28;20063;-39
2022/03/20 01:55:32;;;;;;;0.20;0.20;;;21.80;51.80;;;;;;5063657;28;20041;-39
2022/03/20 01:57:58;;;;;;;0.20;0.20;;;21.80;51.90;;;;;;4994244;28;20038;-38
2022/03/20 02:00:26;;;;;;;0.28;0.20;;;21.70;52.10;;;;;;4999774;28;20030;-40
2022/03/20 02:02:52;;;;;;;0.10;0.10;;;21.70;51.50;;;;;;4999334;28;20057;-39
2022/03/20 02:05:19;;;;;;;0.30;0.10;;;21.70;51.30;;;;;;4998661;28;20030;-39
2022/03/20 02:07:47;;;;;;;0.20;0.20;;;21.70;51.30;;;;;;4965423;28;20034;-39
2022/03/20 02:10:13;;;;;;;0.25;0.10;;;21.70;51.60;;;;;;5009395;28;20050;-39
2022/03/20 02:12:40;;;;;;;0.70;0.20;;;21.70;52.10;;;;;;5009139;28;20065;-39
2022/03/20 02:15:09;;;;;;;0.65;0.20;;;21.70;52.00;;;;;;5020335;28;20045;-39
2022/03/20 02:17:36;;;;;;;0.10;0.10;;;21.70;52.00;;;;;;5004749;28;20030;-39
2022/03/20 02:20:04;;;;;;;0.33;0.10;;;21.70;52.00;;;;;;5000523;28;20094;-39
2022/03/20 02:22:33;;;;;;;0.65;0.15;;;21.70;51.90;;;;;;4996948;28;20049;-39
2022/03/20 02:25:05;;;;;;;0.20;0.20;;;21.60;51.60;;;;;;4999776;28;20026;-39
2022/03/20 02:27:32;;;;;;;0.20;0.20;;;21.60;52.10;;;;;;4982451;28;20090;-39
2022/03/20 02:30:00;;;;;;;0.55;0.20;;;21.60;51.60;;;;;;4999918;28;20053;-39
2022/03/20 02:32:30;;;;;;;0.10;0.10;;;21.70;52.00;;;;;;5001044;28;20550;-39
2022/03/20 02:34:58;;;;;;;0.10;0.10;;;21.70;52.10;;;;;;5039541;28;20112;-39
2022/03/20 02:37:25;;;;;;;0.10;0.10;;;21.70;52.00;;;;;;5085420;28;20606;-39
2022/03/20 02:39:56;;;;;;;0.30;0.20;;;21.70;52.00;;;;;;5076014;28;20043;-39
2022/03/20 02:42:23;;;;;;;0.20;0.20;;;21.70;51.90;;;;;;5068699;28;20017;-39
2022/03/20 02:45:00;;;;;;;0.20;0.20;;;21.70;51.80;;;;;;5062559;28;20029;-39
2022/03/20 02:47:31;;;;;;;0.40;0.20;;;21.60;51.60;;;;;;5073776;28;20047;-39
2022/03/20 02:49:58;;;;;;;0.10;0.10;;;21.60;51.50;;;;;;5064930;28;20705;-39
2022/03/20 02:52:28;;;;;;;0.10;0.10;;;21.60;52.00;;;;;;5082399;28;20078;-39
2022/03/20 02:54:57;;;;;;;0.10;0.10;;;21.70;51.90;;;;;;5081437;28;20032;-39
2022/03/20 02:57:23;;;;;;;0.20;0.20;;;21.70;51.90;;;;;;5063888;28;20032;-39
2022/03/20 02:59:49;;;;;;;0.25;0.20;;;21.60;51.80;;;;;;5082068;28;20032;-39
2022/03/20 03:02:15;;;;;;;0.10;0.10;;;21.60;51.70;;;;;;5075284;28;20055;-39
2022/03/20 03:04:41;;;;;;;0.20;0.20;;;21.60;51.60;;;;;;5096710;28;20032;-39
2022/03/20 03:07:10;;;;;;;0.25;0.20;;;21.50;51.40;;;;;;5094712;28;20588;-39
2022/03/20 03:12:21;;;;;;;0.10;0.10;;;21.60;51.90;;;;;;5080022;28;20032;-39
2022/03/20 03:17:32;;;;;;;0.10;0.10;;;21.60;51.90;;;;;;5075127;28;20051;-39
2022/03/20 03:19:58;;;;;;;0.30;0.20;;;21.60;51.90;;;;;;5081818;28;20039;-39
2022/03/20 03:22:27;;;;;;;0.20;0.13;;;21.60;51.80;;;;;;5085530;28;20024;-39
2022/03/20 03:24:56;;;;;;;0.10;0.10;;;21.60;51.70;;;;;;5087573;28;20036;-38
2022/03/20 03:27:22;;;;;;;0.10;0.10;;;21.50;51.60;;;;;;5062548;28;20045;-39
2022/03/20 03:29:48;;;;;;;0.10;0.10;;;21.50;51.60;;;;;;5046826;28;20042;-39
2022/03/20 03:32:14;;;;;;;0.20;0.20;;;21.60;52.10;;;;;;5041727;28;20030;-39
2022/03/20 03:37:25;;;;;;;0.10;0.10;;;21.60;51.90;;;;;;5046371;28;20044;-39
2022/03/20 03:39:51;;;;;;;0.10;0.10;;;21.60;51.90;;;;;;5051655;28;20036;-39
2022/03/20 03:42:17;;;;;;;0.10;0.10;;;21.50;51.80;;;;;;5052420;28;20025;-39
2022/03/20 03:44:43;;;;;;;0.10;0.10;;;21.50;51.60;;;;;;5041025;28;20559;-39
2022/03/20 03:47:09;;;;;;;0.10;0.10;;;21.50;51.50;;;;;;5042667;28;20033;-39
2022/03/20 03:49:35;;;;;;;0.20;0.10;;;21.50;51.80;;;;;;5061780;28;20044;-39
2022/03/20 03:52:02;;;;;;;0.13;0.10;;;21.50;51.90;;;;;;5065633;28;20050;-39
2022/03/20 03:54:28;;;;;;;0.57;0.10;;;21.50;51.90;;;;;;5064659;28;20056;-38
2022/03/20 03:56:55;;;;;;;0.10;0.10;;;21.50;52.00;;;;;;5064501;28;20039;-39
2022/03/20 03:59:21;;;;;;;0.10;0.10;;;21.50;52.00;;;;;;5049822;28;20053;-39
2022/03/20 04:01:48;;;;;;;0.10;0.10;;;21.50;51.80;;;;;;5065014;28;20021;-39
2022/03/20 04:04:14;;;;;;;0.30;0.20;;;21.50;51.70;;;;;;5045161;28;20092;-39
2022/03/20 04:06:41;;;;;;;0.10;0.10;;;21.50;51.60;;;;;;5060082;28;20041;-39
2022/03/20 04:09:07;;;;;;;1.30;0.10;;;21.50;51.90;;;;;;5031150;28;20041;-39
2022/03/20 04:11:33;;;;;;;0.10;0.10;;;21.50;51.70;;;;;;5046308;28;20033;-38
2022/03/20 04:13:59;;;;;;;0.22;0.10;;;21.50;51.80;;;;;;5055747;28;20017;-38
2022/03/20 04:16:25;;;;;;;0.10;0.10;;;21.50;51.90;;;;;;5064216;28;20048;-38
2022/03/20 04:18:51;;;;;;;0.13;0.10;;;21.50;51.80;;;;;;5056813;28;20041;-38
2022/03/20 04:21:18;;;;;;;0.10;0.10;;;21.40;51.60;;;;;;5063719;28;20029;-38
2022/03/20 04:23:48;;;;;;;0.20;0.20;;;21.40;51.40;;;;;;5045352;28;20079;-38
2022/03/20 04:26:16;;;;;;;0.10;0.10;;;21.40;51.60;;;;;;5071871;28;20052;-38
2022/03/20 04:28:46;;;;;;;0.20;0.10;;;21.40;51.80;;;;;;5083707;28;20044;-38
2022/03/20 04:31:15;;;;;;;0.35;0.20;;;21.50;51.70;;;;;;5088853;28;20551;-38
2022/03/20 04:33:43;;;;;;;0.17;0.10;;;21.40;51.80;;;;;;5087271;28;20059;-39
2022/03/20 04:36:09;;;;;;;0.15;0.10;;;21.50;51.80;;;;;;5083604;28;20028;-38
2022/03/20 04:38:36;;;;;;;0.10;0.10;;;21.40;51.70;;;;;;5066666;28;20036;-39
2022/03/20 04:41:03;;;;;;;0.20;0.10;;;21.40;51.40;;;;;;5071947;28;20052;-38
2022/03/20 04:43:30;;;;;;;0.10;0.10;;;21.40;51.60;;;;;;5064191;28;20041;-38
2022/03/20 04:45:56;;;;;;;0.20;0.15;;;21.50;51.90;;;;;;5065460;28;20036;-38
2022/03/20 04:59:34;;;;;;;0.10;0.10;;;21.40;51.60;;;;;;5041718;28;20052;-38
2022/03/20 05:02:00;;;;;;;0.10;0.10;;;21.40;51.80;;;;;;5040145;28;20800;-38
2022/03/20 05:04:26;;;;;;;0.10;0.10;;;21.40;51.70;;;;;;5041311;28;20030;-38
2022/03/20 05:06:52;;;;;;;0.30;0.10;;;21.40;51.90;;;;;;5041016;28;20585;-38
2022/03/20 05:14:47;;;;;;;0.35;0.10;;;21.30;51.40;;;;;;5041615;28;20052;-38
2022/03/20 05:17:14;;;;;;;0.20;0.20;;;21.40;51.60;;;;;;5049910;28;20053;-38
2022/03/20 05:19:43;;;;;;;0.15;0.10;;;21.40;51.70;;;;;;5053563;28;20029;-38
2022/03/20 05:22:13;;;;;;;0.28;0.10;;;21.40;51.70;;;;;;5040698;28;20032;-38
2022/03/20 05:24:39;;;;;;;0.10;0.10;;;21.40;51.70;;;;;;5041044;28;20030;-39
2022/03/20 05:27:06;;;;;;;0.10;0.10;;;21.40;51.70;;;;;;5040900;28;20050;-38
2022/03/20 05:29:32;;;;;;;0.73;0.10;;;21.30;51.60;;;;;;5058476;28;20044;-38
2022/03/20 05:32:00;;;;;;;0.15;0.10;;;21.30;51.50;;;;;;5093677;28;20032;-38
2022/03/20 05:34:26;;;;;;;0.10;0.10;;;21.40;52.30;;;;;;5090716;28;20037;-38
2022/03/20 05:36:53;;;;;;;0.13;0.10;;;21.40;51.70;;;;;;5064495;28;20035;-38
2022/03/20 05:39:19;;;;;;;0.10;0.10;;;21.40;51.80;;;;;;5073724;28;20044;-38
2022/03/20 05:41:48;;;;;;;0.20;0.20;;;21.40;51.80;;;;;;5078110;28;20024;-38
2022/03/20 05:44:25;;;;;;;0.35;0.20;;;21.30;51.70;;;;;;5082378;28;20032;-38
2022/03/20 05:46:52;;;;;;;0.20;0.20;;;21.30;51.50;;;;;;5074160;28;20041;-38
2022/03/20 05:49:22;;;;;;;0.52;0.10;;;21.30;51.70;;;;;;5066167;28;20063;-38
2022/03/20 05:51:48;;;;;;;0.43;0.10;;;21.30;51.80;;;;;;5078855;28;20032;-39
2022/03/20 05:54:15;;;;;;;0.40;0.10;;;21.40;51.80;;;;;;5083137;28;20105;-38
2022/03/20 05:59:27;;;;;;;0.93;0.10;;;21.30;51.70;;;;;;5082836;28;20036;-38
2022/03/20 06:01:53;;;;;;;1.00;0.10;;;21.30;51.60;;;;;;5075225;28;20087;-38
2022/03/20 06:04:20;;;;;;;0.08;0.08;;;21.30;51.60;;;;;;5063508;28;20033;-39
2022/03/20 06:06:48;;;;;;;0.10;0.10;;;21.30;51.70;;;;;;5080689;28;20028;-38
2022/03/20 06:09:14;;;;;;;0.17;0.17;;;21.30;51.80;;;;;;5081291;28;20107;-38
2022/03/20 06:11:41;;;;;;;0.30;0.10;;;21.30;51.70;;;;;;5070293;28;20084;-38
2022/03/20 06:14:08;;;;;;;0.47;0.10;;;21.30;51.90;;;;;;5062010;28;20124;-38
2022/03/20 06:16:35;;;;;;;0.10;0.10;;;21.30;51.80;;;;;;5066647;28;20261;-38
2022/03/20 06:19:01;;;;;;;0.10;0.10;;;21.30;51.70;;;;;;5080129;28;20066;-39
2022/03/20 06:21:27;;;;;;;0.30;0.20;;;21.30;51.60;;;;;;5069341;28;20056;-38
2022/03/20 06:23:54;;;;;;;0.10;0.10;;;21.30;51.70;;;;;;5068305;28;20032;-38
2022/03/20 06:26:23;;;;;;;0.20;0.10;;;21.30;51.80;;;;;;5082113;28;20105;-39
2022/03/20 06:28:50;;;;;;;0.20;0.10;;;21.30;51.70;;;;;;5064032;28;20044;-38
2022/03/20 06:31:17;;;;;;;0.20;0.20;;;21.30;51.80;;;;;;5081756;28;20469;-39
2022/03/20 06:33:46;;;;;;;0.17;0.10;;;21.30;51.80;;;;;;5082167;28;20037;-38
2022/03/20 06:36:12;;;;;;;0.10;0.10;;;21.20;51.60;;;;;;5081856;28;20028;-38
2022/03/20 06:38:38;;;;;;;0.03;0.03;;;21.20;52.00;;;;;;5080907;28;20472;-38
2022/03/20 06:41:06;;;;;;;0.10;0.10;;;21.20;51.60;;;;;;5080258;28;20028;-38
2022/03/20 06:43:36;;;;;;;0.15;0.10;;;21.30;51.80;;;;;;5082794;28;20021;-39
2022/03/20 06:46:03;;;;;;;0.50;0.10;;;21.30;51.80;;;;;;5079802;28;20071;-38
2022/03/20 06:48:29;;;;;;;0.10;0.10;;;21.30;51.70;;;;;;5061929;28;20023;-39
2022/03/20 06:50:56;;;;;;;0.10;0.10;;;21.20;51.60;;;;;;5062247;28;20094;-38
2022/03/20 06:53:22;;;;;;;0.10;0.10;;;21.20;51.60;;;;;;5072562;28;20028;-39
2022/03/20 06:55:48;;;;;;;0.25;0.10;;;21.20;51.30;;;;;;5081923;28;20479;-39
2022/03/20 06:58:15;;;;;;;0.20;0.15;;;21.20;51.40;;;;;;5081798;28;20024;-38
2022/03/20 07:00:41;;;;;;;0.10;0.10;;;21.30;51.60;;;;;;5081755;28;20029;-38
2022/03/20 07:03:08;;;;;;;0.10;0.10;;;21.30;51.60;;;;;;5081769;28;20028;-38
2022/03/20 07:05:39;;;;;;;0.20;0.15;;;21.30;51.60;;;;;;5081705;28;20033;-38
2022/03/20 07:08:06;;;;;;;0.10;0.10;;;21.20;51.50;;;;;;5065335;28;20035;-38
2022/03/20 07:10:32;;;;;;;;;;;21.20;51.40;;;;;;5073420;28;20044;-39
2022/03/20 07:15:45;;;;;;;0.10;0.10;;;21.20;51.40;;;;;;5032542;28;20052;-39
2022/03/20 07:18:16;;;;;;;0.10;0.10;;;21.20;51.60;;;;;;5081743;28;20106;-38
2022/03/20 07:20:43;;;;;;;0.10;0.10;;;21.20;51.60;;;;;;5081371;28;20047;-38
2022/03/20 07:23:09;;;;;;;;;;;21.20;51.60;;;;;;5081721;28;20036;-39
2022/03/20 07:31:05;;;;;;;0.10;0.10;;;21.10;51.40;;;;;;5085977;28;20638;-38
2022/03/20 07:33:33;;;;;;;0.10;0.10;;;21.20;51.50;;;;;;5076797;28;20123;-39
2022/03/20 07:35:59;;;;;;;;;;;21.20;51.50;;;;;;5086274;28;20056;-39
2022/03/20 07:38:26;;;;;;;0.20;0.15;;;21.20;51.60;;;;;;5085098;28;19916;-39
2022/03/20 07:40:52;;;;;;;0.20;0.20;;;21.20;51.60;;;;;;5085276;28;20031;-39
2022/03/20 07:43:18;;;;;;;0.50;0.20;;;21.10;51.50;;;;;;5082783;28;20047;-39
2022/03/20 07:45:45;;;;;;;0.10;0.10;;;21.10;51.30;;;;;;5085371;28;20040;-39
2022/03/20 07:48:11;;;;;;;0.10;0.10;;;21.10;51.40;;;;;;5082404;28;20024;-38
2022/03/20 07:50:38;;;;;;;0.28;0.20;;;21.20;51.50;;;;;;5085312;28;20124;-39
2022/03/20 07:53:05;;;;;;;0.20;0.20;;;21.20;51.50;;;;;;5077690;28;20025;-39
2022/03/20 07:55:31;;;;;;;0.10;0.10;;;21.20;51.60;;;;;;5085076;28;20050;-39
2022/03/20 07:58:00;;;;;;;1.35;0.10;;;21.10;51.50;;;;;;5074627;28;20371;-39
2022/03/20 08:00:26;;;;;;;0.30;0.13;;;21.10;51.50;;;;;;5068012;28;20024;-39
2022/03/20 08:02:52;;;;;;;0.40;0.20;;;21.10;51.30;;;;;;5075267;28;20037;-39
2022/03/20 08:05:20;;;;;;;0.10;0.10;;;21.10;51.50;;;;;;5083342;28;20054;-39
2022/03/20 08:07:46;;;;;;;0.20;0.20;;;21.10;51.60;;;;;;5084371;28;20052;-39
2022/03/20 08:10:13;;;;;;;0.10;0.10;;;21.10;52.10;;;;;;5067358;28;20044;-39
2022/03/20 08:12:39;;;;;;;0.10;0.10;;;21.10;51.70;;;;;;5085111;28;20050;-39
2022/03/20 08:15:06;;;;;;;0.28;0.10;;;21.10;51.50;;;;;;5084811;28;20063;-39
2022/03/20 08:17:41;;;;;;;0.60;0.20;;;21.10;51.50;;;;;;5083379;28;20047;-39
2022/03/20 08:20:07;;;;;;;0.10;0.10;;;21.00;51.30;;;;;;5084594;28;20439;-39
2022/03/20 08:22:34;;;;;;;0.20;0.10;;;21.10;51.50;;;;;;5084576;28;20100;-39
2022/03/20 08:25:00;;;;;;;0.10;0.10;;;21.10;51.60;;;;;;5084931;28;20277;-38
2022/03/20 08:27:26;;;;;;;0.10;0.10;;;21.10;51.60;;;;;;5084730;28;20064;-39
2022/03/20 08:29:52;;;;;;;0.13;0.13;;;21.10;51.70;;;;;;5083667;28;20105;-39
2022/03/20 08:32:19;;;;;;;0.10;0.10;;;21.10;51.60;;;;;;5084856;28;20029;-39
2022/03/20 08:34:45;;;;;;;0.10;0.10;;;21.00;51.50;;;;;;5083796;28;20917;-39
2022/03/20 08:37:11;;;;;;;0.10;0.10;;;21.00;51.40;;;;;;5084450;28;20033;-39
2022/03/20 08:39:37;;;;;;;0.10;0.10;;;21.10;51.60;;;;;;5082433;28;20021;-39
2022/03/20 08:42:05;;;;;;;0.28;0.10;;;21.10;51.70;;;;;;5082562;28;20825;-39
2022/03/20 08:44:31;;;;;;;1.98;0.22;;;21.10;52.30;;;;;;5084516;28;20272;-39
2022/03/20 08:46:57;;;;;;;0.10;0.10;;;21.10;51.80;;;;;;5084349;28;20115;-39
2022/03/20 08:49:23;;;;;;;0.10;0.10;;;21.00;51.70;;;;;;5069086;28;20048;-39
2022/03/20 08:51:49;;;;;;;0.22;0.10;;;21.00;51.60;;;;;;5075674;28;20025;-39
2022/03/20 08:54:15;;;;;;;0.22;0.10;;;21.00;51.50;;;;;;5073050;28;20054;-39
2022/03/20 08:56:42;;;;;;;0.10;0.10;;;21.00;51.60;;;;;;5084165;28;20031;-39
2022/03/20 08:59:08;;;;;;;0.10;0.10;;;21.10;51.80;;;;;;5080405;28;20038;-39
2022/03/20 09:01:34;;;;;;;0.30;0.10;;;21.10;51.60;;;;;;5083572;28;20055;-39
2022/03/20 09:04:00;;;;;;;0.20;0.20;;;21.10;51.70;;;;;;5074819;28;20017;-39
2022/03/20 09:06:27;;;;;;;0.43;0.17;;;21.00;51.70;;;;;;5074214;28;20493;-39
2022/03/20 09:08:53;;;;;;;0.10;0.10;;;21.00;51.60;;;;;;5081285;28;20041;-39
2022/03/20 09:11:21;;;;;;;0.10;0.10;;;21.00;51.60;;;;;;5083764;28;20658;-39
2022/03/20 09:13:47;;;;;;;0.17;0.10;;;21.00;51.70;;;;;;5077738;28;20037;-39
2022/03/20 09:19:07;;;;;;;0.10;0.10;;;21.10;51.80;;;;;;5070489;28;20114;-39
2022/03/20 09:21:37;;;;;;;0.30;0.20;;;21.00;51.80;;;;;;5083649;28;20048;-39
2022/03/20 09:24:04;;;;;;;0.10;0.10;;;21.00;51.70;;;;;;5066910;28;20126;-39
2022/03/20 09:26:30;;;;;;;0.10;0.10;;;21.00;51.70;;;;;;5090140;28;20079;-39
2022/03/20 09:28:57;;;;;;;0.10;0.10;;;21.00;51.80;;;;;;5083475;28;20123;-39
2022/03/20 09:31:23;;;;;;;0.10;0.10;;;21.00;51.90;;;;;;5083207;28;20025;-39
2022/03/20 09:33:49;;;;;;;0.10;0.10;;;21.00;51.80;;;;;;5080089;28;20017;-39
2022/03/20 09:36:16;;;;;;;0.17;0.10;;;21.00;51.80;;;;;;5045543;28;20032;-39
2022/03/20 09:38:42;;;;;;;0.10;0.10;;;21.00;51.80;;;;;;5063308;28;20033;-39
2022/03/20 09:41:08;;;;;;;0.17;0.13;;;21.00;51.70;;;;;;5069102;28;20024;-39
2022/03/20 09:43:38;;;;;;;0.20;0.10;;;21.00;51.70;;;;;;5083748;28;20763;-39
2022/03/20 09:46:05;;;;;;;0.20;0.10;;;21.00;51.90;;;;;;5083207;28;20040;-39
2022/03/20 09:48:31;;;;;;;0.90;0.20;;;21.00;51.90;;;;;;5082214;28;20036;-39
2022/03/20 09:50:58;;;;;;;0.10;0.10;;;21.00;52.00;;;;;;5064502;28;20547;-38
2022/03/20 09:53:24;;;;;;;0.10;0.10;;;21.00;51.90;;;;;;5080982;28;20031;-39
2022/03/20 09:55:54;;;;;;;0.10;0.10;;;21.00;51.70;;;;;;5083281;28;20344;-39
2022/03/20 09:58:26;;;;;;;0.10;0.10;;;21.00;51.70;;;;;;5082756;28;20135;-39
2022/03/20 10:00:53;;;;;;;0.10;0.10;;;21.00;51.90;;;;;;5063765;28;20401;-38
2022/03/20 10:03:21;;;;;;;0.20;0.15;;;21.00;51.90;;;;;;5082467;28;20029;-39
2022/03/20 10:06:15;;;;;;;0.20;0.20;;;21.00;52.00;;;;;;5068060;28;20037;-39
2022/03/20 10:09:02;;;;;;;0.30;0.20;;;21.00;51.90;;;;;;5070304;28;20036;-39
2022/03/20 10:11:28;;;;;;;0.13;0.10;;;20.90;51.70;;;;;;5075835;28;20122;-39
2022/03/20 10:14:20;;;;;;;0.10;0.10;;;21.00;51.80;;;;;;5081299;28;20029;-39
2022/03/20 10:17:17;;;;;;;0.10;0.10;;;21.00;52.00;;;;;;5081650;28;20073;-39
2022/03/20 10:19:43;;;;;;;0.10;0.10;;;21.00;51.90;;;;;;5078747;28;20040;-39
2022/03/20 10:22:11;;;;;;;0.20;0.20;;;21.00;52.00;;;;;;5079626;28;20560;-39
2022/03/20 10:24:46;;;;;;;0.20;0.20;;;20.90;51.90;;;;;;5082320;28;20024;-39
2022/03/20 10:27:13;;;;;;;0.68;0.30;;;20.90;51.80;;;;;;5082064;28;20060;-38
2022/03/20 10:29:52;;;;;;;0.10;0.10;;;21.00;51.90;;;;;;5082029;28;20040;-39
2022/03/20 10:32:18;;;;;;;0.90;0.20;;;21.00;52.00;;;;;;5081724;28;20029;-39
2022/03/20 10:34:58;;;;;;;0.10;0.10;;;21.00;52.00;;;;;;5081004;28;20028;-38
2022/03/20 10:37:43;;;;;;;0.20;0.20;;;21.00;52.00;;;;;;5082260;28;20032;-39
2022/03/20 10:40:10;;;;;;;0.20;0.20;;;20.90;51.90;;;;;;5064924;28;20032;-39
2022/03/20 10:42:36;;;;;;;0.10;0.10;;;20.90;51.80;;;;;;5082106;28;20031;-39
2022/03/20 10:45:09;;;;;;;0.10;0.10;;;20.90;51.80;;;;;;5098513;28;20528;-39
2022/03/20 10:47:35;;;;;;;0.17;0.10;;;20.90;51.90;;;;;;5066808;28;20029;-39
2022/03/20 10:50:06;;;;;;;0.20;0.20;;;21.00;52.00;;;;;;5063352;28;20029;-39
2022/03/20 10:52:36;;;;;;;0.10;0.10;;;21.00;52.10;;;;;;5081785;28;20025;-38
2022/03/20 10:55:07;;;;;;;0.52;0.20;;;20.90;52.00;;;;;;5081734;28;20044;-39
2022/03/20 10:57:34;;;;;;;0.10;0.10;;;20.80;51.90;;;;;;5082015;28;20031;-39
2022/03/20 11:00:14;;;;;;;0.17;0.17;;;20.90;51.90;;;;;;5081178;28;20113;-39
2022/03/20 11:02:41;;;;;;;0.10;0.10;;;20.90;52.00;;;;;;5081830;28;20055;-39
2022/03/20 11:05:08;;;;;;;0.10;0.10;;;21.00;52.00;;;;;;5081825;28;20044;-39
2022/03/20 11:07:35;;;;;;;;;;;20.90;52.10;;;;;;5066710;28;20427;-38
2022/03/20 11:10:02;;;;;;;0.20;0.20;;;20.90;52.10;;;;;;5080574;28;19958;-39
2022/03/20 11:12:29;;;;;;;0.15;0.15;;;20.90;52.00;;;;;;5081475;28;20047;-39
2022/03/20 11:14:58;;;;;;;0.13;0.13;;;20.80;51.80;;;;;;5081981;28;20048;-39
2022/03/20 11:17:27;;;;;;;0.20;0.20;;;20.90;51.90;;;;;;5067508;28;20021;-39
2022/03/20 11:19:54;;;;;;;0.15;0.15;;;20.90;52.00;;;;;;5069224;28;20097;-41
2022/03/20 11:22:20;;;;;;;0.10;0.10;;;20.90;52.00;;;;;;5065450;28;20048;-39
2022/03/20 11:24:48;;;;;;;0.20;0.20;;;20.90;52.10;;;;;;5074369;28;20036;-39
2022/03/20 11:27:15;;;;;;;;;;;20.90;52.00;;;;;;5071443;28;20470;-39
2022/03/20 11:29:46;;;;;;;0.20;0.10;;;20.80;51.90;;;;;;5081615;28;20023;-39
2022/03/20 11:32:12;;;;;;;0.30;0.10;;;20.80;51.90;;;;;;5063687;28;20029;-38
2022/03/20 11:34:38;;;;;;;0.10;0.10;;;20.90;52.00;;;;;;5061932;28;20132;-39
2022/03/20 11:37:07;;;;;;;0.70;0.25;;;20.90;52.00;;;;;;5050024;28;20090;-39
2022/03/20 11:39:34;;;;;;;0.20;0.20;;;20.90;52.10;;;;;;5061145;28;20040;-40
2022/03/20 11:42:26;;;;;;;0.45;0.10;;;20.90;52.00;;;;;;5041776;28;20028;-39
2022/03/20 11:45:01;;;;;;;0.15;0.10;;;20.80;51.90;;;;;;5061541;28;20029;-39
2022/03/20 11:47:29;;;;;;;0.20;0.20;;;20.80;51.80;;;;;;5048256;28;20033;-39
2022/03/20 11:50:21;;;;;;;0.10;0.10;;;20.80;51.90;;;;;;5041667;28;20041;-38
2022/03/20 11:52:58;;;;;;;0.10;0.10;;;20.90;52.00;;;;;;5056464;28;20039;-39
2022/03/20 11:55:29;;;;;;;0.30;0.20;;;20.90;52.10;;;;;;5059702;28;20072;-39
2022/03/20 11:57:56;;;;;;;0.10;0.10;;;20.80;52.00;;;;;;5060955;28;20052;-39
2022/03/20 12:00:29;;;;;;;0.20;0.20;;;20.80;51.90;;;;;;5060679;28;20064;-39
2022/03/20 12:03:17;;;;;;;0.17;0.10;;;20.70;51.90;;;;;;5061211;28;20039;-39
2022/03/20 12:06:08;;;;;;;0.20;0.13;;;20.80;51.90;;;;;;5043446;28;20051;-39
2022/03/20 12:09:07;;;;;;;0.17;0.17;;;20.80;52.00;;;;;;5047591;28;20827;-39
2022/03/20 12:11:59;;;;;;;0.25;0.20;;;20.90;52.00;;;;;;5056948;28;20029;-38
2022/03/20 12:14:33;;;;;;;0.20;0.20;;;20.80;52.00;;;;;;5047060;28;20029;-38
2022/03/20 12:17:00;;;;;;;0.20;0.10;;;20.80;51.90;;;;;;5023376;28;20084;-38
2022/03/20 12:19:42;;;;;;;0.10;0.10;;;20.70;51.80;;;;;;5049289;28;20932;-38
2022/03/20 12:22:16;;;;;;;0.10;0.10;;;20.80;51.90;;;;;;5060499;28;20035;-39
2022/03/20 12:24:54;;;;;;;0.20;0.20;;;20.80;52.00;;;;;;5064958;28;20029;-38
2022/03/20 12:29:47;;;;;;;0.30;0.30;;;20.80;52.00;;;;;;5075444;28;20059;-38
2022/03/20 12:32:14;;;;;;;0.20;0.10;;;20.70;51.90;;;;;;5071490;28;20040;-38
2022/03/20 12:34:41;;;;;;;0.10;0.10;;;20.70;51.90;;;;;;5064822;28;20033;-38
2022/03/20 12:37:39;;;;;;;0.25;0.20;;;20.70;51.80;;;;;;5062085;28;20047;-38
2022/03/20 12:40:21;;;;;;;0.17;0.17;;;20.80;52.00;;;;;;5055345;28;20066;-38
2022/03/20 12:43:08;;;;;;;0.47;0.30;;;20.80;52.00;;;;;;5064773;28;20037;-38
2022/03/20 12:45:35;;;;;;;0.20;0.13;;;20.80;52.10;;;;;;5046522;28;20021;-38
2022/03/20 12:48:07;;;;;;;0.30;0.20;;;20.80;51.90;;;;;;5044736;28;20080;-38
2022/03/20 12:50:34;;;;;;;0.73;0.20;;;20.80;51.80;;;;;;5057153;28;20049;-38
2022/03/20 12:53:06;;;;;;;0.45;0.20;;;20.80;51.90;;;;;;5064262;28;20029;-38
2022/03/20 12:55:32;;;;;;;0.20;0.15;;;20.80;52.00;;;;;;5064432;28;20060;-38
2022/03/20 12:57:58;;;;;;;0.20;0.20;;;20.80;52.00;;;;;;5063794;28;20021;-38
2022/03/20 13:00:27;;;;;;;0.20;0.20;;;20.90;52.00;;;;;;5063915;28;20032;-38
2022/03/20 13:03:09;;;;;;;0.20;0.20;;;20.80;51.90;;;;;;5059062;28;20080;-38
2022/03/20 13:05:40;;;;;;;0.38;0.20;;;20.80;51.90;;;;;;5044262;28;20045;-38
2022/03/20 13:08:06;;;;;;;0.30;0.20;;;20.80;51.90;;;;;;5063425;28;20051;-38
2022/03/20 13:10:39;;;;;;;0.10;0.10;;;20.90;52.10;;;;;;5056120;28;20037;-38
2022/03/20 13:13:07;;;;;;;1.95;0.20;;;20.90;52.10;;;;;;5064051;28;20265;-39
2022/03/20 13:15:38;;;;;;;0.20;0.20;;;20.90;52.10;;;;;;5063757;28;20033;-39
2022/03/20 13:18:05;;;;;;;0.85;0.20;;;20.90;52.00;;;;;;5044662;28;20040;-39
2022/03/20 13:20:35;;;;;;;0.22;0.20;;;20.80;51.90;;;;;;5058482;28;20060;-39
2022/03/20 13:23:12;;;;;;;0.20;0.10;;;20.80;51.80;;;;;;5066209;28;20032;-39
2022/03/20 13:25:45;;;;;;;0.17;0.17;;;20.90;52.00;;;;;;5054978;28;20071;-40
2022/03/20 13:28:28;;;;;;;0.40;0.20;;;20.90;52.10;;;;;;5074747;28;20583;-39
2022/03/20 13:31:16;;;;;;;0.28;0.28;;;20.90;52.00;;;;;;5079544;28;20044;-39
2022/03/20 13:33:51;;;;;;;0.20;0.20;;;20.90;52.00;;;;;;5050400;28;20108;-39
2022/03/20 13:36:17;;;;;;;0.20;0.20;;;20.90;51.90;;;;;;5083457;28;20041;-39